sensor_id;sensor_type;location;lat;lon;timestamp;temperature;humidity
9816;DHT22;4947;44.526;11.360;2022-07-10T00:00:00;20.20;77.30
9816;DHT22;4947;44.526;11.360;2022-07-10T00:02:29;20.20;77.10
9816;DHT22;4947;44.526;11.360;2022-07-10T00:04:56;20.10;77.40
9816;DHT22;4947;44.526;11.360;2022-07-10T00:07:24;20.10;78.40
9816;DHT22;4947;44.526;11.360;2022-07-10T00:09:52;20.10;78.70
9816;DHT22;4947;44.526;11.360;2022-07-10T00:12:19;20.10;77.80
9816;DHT22;4947;44.526;11.360;2022-07-10T00:14:47;20.00;77.90
9816;DHT22;4947;44.526;11.360;2022-07-10T00:17:15;19.90;78.50
9816;DHT22;4947;44.526;11.360;2022-07-10T00:19:44;19.80;79.20
9816;DHT22;4947;44.526;11.360;2022-07-10T00:22:11;19.80;79.70
9816;DHT22;4947;44.526;11.360;2022-07-10T00:24:39;19.80;80.60
9816;DHT22;4947;44.526;11.360;2022-07-10T00:27:06;19.80;81.20
9816;DHT22;4947;44.526;11.360;2022-07-10T00:29:34;19.90;80.90
9816;DHT22;4947;44.526;11.360;2022-07-10T00:32:02;19.90;80.80
9816;DHT22;4947;44.526;11.360;2022-07-10T00:34:29;19.80;81.70
9816;DHT22;4947;44.526;11.360;2022-07-10T00:36:58;19.80;82.20
9816;DHT22;4947;44.526;11.360;2022-07-10T00:39:26;19.80;82.50
9816;DHT22;4947;44.526;11.360;2022-07-10T00:41:54;19.80;81.40
9816;DHT22;4947;44.526;11.360;2022-07-10T00:44:21;19.80;81.40
9816;DHT22;4947;44.526;11.360;2022-07-10T00:46:49;19.80;81.10
9816;DHT22;4947;44.526;11.360;2022-07-10T00:49:17;19.80;80.70
9816;DHT22;4947;44.526;11.360;2022-07-10T00:51:45;19.90;81.40
9816;DHT22;4947;44.526;11.360;2022-07-10T00:54:14;19.90;81.40
9816;DHT22;4947;44.526;11.360;2022-07-10T00:56:42;19.90;81.80
9816;DHT22;4947;44.526;11.360;2022-07-10T00:59:10;19.90;82.00
9816;DHT22;4947;44.526;11.360;2022-07-10T01:01:38;19.80;82.80
9816;DHT22;4947;44.526;11.360;2022-07-10T01:04:06;19.80;83.00
9816;DHT22;4947;44.526;11.360;2022-07-10T01:06:33;19.70;83.70
9816;DHT22;4947;44.526;11.360;2022-07-10T01:09:01;19.70;82.70
9816;DHT22;4947;44.526;11.360;2022-07-10T01:11:33;19.60;81.80
9816;DHT22;4947;44.526;11.360;2022-07-10T01:14:01;19.70;82.00
9816;DHT22;4947;44.526;11.360;2022-07-10T01:16:28;19.70;81.10
9816;DHT22;4947;44.526;11.360;2022-07-10T01:18:56;19.70;81.50
9816;DHT22;4947;44.526;11.360;2022-07-10T01:21:26;19.60;80.90
9816;DHT22;4947;44.526;11.360;2022-07-10T01:23:53;19.70;80.90
9816;DHT22;4947;44.526;11.360;2022-07-10T01:26:22;19.60;79.90
9816;DHT22;4947;44.526;11.360;2022-07-10T01:28:51;19.60;79.60
9816;DHT22;4947;44.526;11.360;2022-07-10T01:31:19;19.60;79.00
9816;DHT22;4947;44.526;11.360;2022-07-10T01:33:47;19.50;79.90
9816;DHT22;4947;44.526;11.360;2022-07-10T01:36:15;19.50;81.70
9816;DHT22;4947;44.526;11.360;2022-07-10T01:38:44;19.50;81.60
9816;DHT22;4947;44.526;11.360;2022-07-10T01:41:12;19.40;82.20
9816;DHT22;4947;44.526;11.360;2022-07-10T01:43:40;19.40;82.90
9816;DHT22;4947;44.526;11.360;2022-07-10T01:46:09;19.40;83.70
9816;DHT22;4947;44.526;11.360;2022-07-10T01:48:37;19.30;84.40
9816;DHT22;4947;44.526;11.360;2022-07-10T01:51:06;19.20;85.40
9816;DHT22;4947;44.526;11.360;2022-07-10T01:53:33;19.10;86.00
9816;DHT22;4947;44.526;11.360;2022-07-10T01:56:04;19.10;86.30
9816;DHT22;4947;44.526;11.360;2022-07-10T01:58:33;19.20;86.10
9816;DHT22;4947;44.526;11.360;2022-07-10T02:01:00;19.10;86.70
9816;DHT22;4947;44.526;11.360;2022-07-10T02:03:28;19.10;87.00
9816;DHT22;4947;44.526;11.360;2022-07-10T02:06:12;19.10;87.20
9816;DHT22;4947;44.526;11.360;2022-07-10T02:08:40;19.10;88.00
9816;DHT22;4947;44.526;11.360;2022-07-10T02:11:09;19.00;87.50
9816;DHT22;4947;44.526;11.360;2022-07-10T02:13:37;19.10;88.90
9816;DHT22;4947;44.526;11.360;2022-07-10T02:16:05;19.00;89.10
9816;DHT22;4947;44.526;11.360;2022-07-10T02:18:33;19.00;89.10
9816;DHT22;4947;44.526;11.360;2022-07-10T02:21:00;19.00;88.30
9816;DHT22;4947;44.526;11.360;2022-07-10T02:23:28;19.00;88.70
9816;DHT22;4947;44.526;11.360;2022-07-10T02:25:56;19.10;88.80
9816;DHT22;4947;44.526;11.360;2022-07-10T02:28:25;19.10;90.10
9816;DHT22;4947;44.526;11.360;2022-07-10T02:30:52;19.20;89.60
9816;DHT22;4947;44.526;11.360;2022-07-10T02:33:21;19.10;88.50
9816;DHT22;4947;44.526;11.360;2022-07-10T02:35:48;19.10;88.50
9816;DHT22;4947;44.526;11.360;2022-07-10T02:38:16;19.00;88.20
9816;DHT22;4947;44.526;11.360;2022-07-10T02:40:43;19.00;89.10
9816;DHT22;4947;44.526;11.360;2022-07-10T02:43:11;18.90;88.80
9816;DHT22;4947;44.526;11.360;2022-07-10T02:45:40;18.90;88.50
9816;DHT22;4947;44.526;11.360;2022-07-10T02:48:07;18.90;88.30
9816;DHT22;4947;44.526;11.360;2022-07-10T02:50:34;18.80;88.40
9816;DHT22;4947;44.526;11.360;2022-07-10T02:53:02;18.80;88.80
9816;DHT22;4947;44.526;11.360;2022-07-10T02:55:30;18.70;89.60
9816;DHT22;4947;44.526;11.360;2022-07-10T02:57:58;18.70;90.10
9816;DHT22;4947;44.526;11.360;2022-07-10T03:00:26;18.70;90.20
9816;DHT22;4947;44.526;11.360;2022-07-10T03:02:55;18.60;90.50
9816;DHT22;4947;44.526;11.360;2022-07-10T03:05:23;18.60;90.50
9816;DHT22;4947;44.526;11.360;2022-07-10T03:07:51;18.50;90.30
9816;DHT22;4947;44.526;11.360;2022-07-10T03:10:18;18.50;90.00
9816;DHT22;4947;44.526;11.360;2022-07-10T03:12:46;18.50;90.00
9816;DHT22;4947;44.526;11.360;2022-07-10T03:15:15;18.60;90.00
9816;DHT22;4947;44.526;11.360;2022-07-10T03:17:43;18.50;90.00
9816;DHT22;4947;44.526;11.360;2022-07-10T03:20:12;18.50;90.50
9816;DHT22;4947;44.526;11.360;2022-07-10T03:22:39;18.60;90.60
9816;DHT22;4947;44.526;11.360;2022-07-10T03:25:07;18.60;90.80
9816;DHT22;4947;44.526;11.360;2022-07-10T03:27:35;18.60;90.80
9816;DHT22;4947;44.526;11.360;2022-07-10T03:30:04;18.60;91.20
9816;DHT22;4947;44.526;11.360;2022-07-10T03:32:32;18.60;91.30
9816;DHT22;4947;44.526;11.360;2022-07-10T03:35:00;18.60;91.50
9816;DHT22;4947;44.526;11.360;2022-07-10T03:37:29;18.50;91.80
9816;DHT22;4947;44.526;11.360;2022-07-10T03:39:56;18.50;91.80
9816;DHT22;4947;44.526;11.360;2022-07-10T03:42:24;18.50;91.80
9816;DHT22;4947;44.526;11.360;2022-07-10T03:44:52;18.50;91.90
9816;DHT22;4947;44.526;11.360;2022-07-10T03:47:19;18.40;91.40
9816;DHT22;4947;44.526;11.360;2022-07-10T03:49:47;18.40;91.70
9816;DHT22;4947;44.526;11.360;2022-07-10T03:52:15;18.40;91.70
9816;DHT22;4947;44.526;11.360;2022-07-10T03:54:44;18.40;91.70
9816;DHT22;4947;44.526;11.360;2022-07-10T03:57:12;18.50;91.30
9816;DHT22;4947;44.526;11.360;2022-07-10T03:59:56;18.60;91.00
9816;DHT22;4947;44.526;11.360;2022-07-10T04:02:24;18.60;91.10
9816;DHT22;4947;44.526;11.360;2022-07-10T04:04:51;18.60;91.50
9816;DHT22;4947;44.526;11.360;2022-07-10T04:07:19;18.60;91.60
9816;DHT22;4947;44.526;11.360;2022-07-10T04:09:48;18.70;91.50
9816;DHT22;4947;44.526;11.360;2022-07-10T04:12:15;18.70;91.60
9816;DHT22;4947;44.526;11.360;2022-07-10T04:14:43;18.80;91.20
9816;DHT22;4947;44.526;11.360;2022-07-10T04:17:10;18.80;90.70
9816;DHT22;4947;44.526;11.360;2022-07-10T04:19:38;18.90;87.40
9816;DHT22;4947;44.526;11.360;2022-07-10T04:22:05;18.90;86.20
9816;DHT22;4947;44.526;11.360;2022-07-10T04:24:33;18.90;84.80
9816;DHT22;4947;44.526;11.360;2022-07-10T04:27:03;19.10;83.90
9816;DHT22;4947;44.526;11.360;2022-07-10T04:29:30;19.10;84.10
9816;DHT22;4947;44.526;11.360;2022-07-10T04:31:58;19.10;83.00
9816;DHT22;4947;44.526;11.360;2022-07-10T04:34:26;19.10;81.90
9816;DHT22;4947;44.526;11.360;2022-07-10T04:36:53;19.20;81.50
9816;DHT22;4947;44.526;11.360;2022-07-10T04:39:21;19.30;81.60
9816;DHT22;4947;44.526;11.360;2022-07-10T04:41:49;19.30;79.10
9816;DHT22;4947;44.526;11.360;2022-07-10T04:44:18;19.30;79.50
9816;DHT22;4947;44.526;11.360;2022-07-10T04:46:45;19.40;80.70
9816;DHT22;4947;44.526;11.360;2022-07-10T04:49:13;19.50;79.40
9816;DHT22;4947;44.526;11.360;2022-07-10T04:51:41;19.50;79.70
9816;DHT22;4947;44.526;11.360;2022-07-10T04:54:08;19.60;79.10
9816;DHT22;4947;44.526;11.360;2022-07-10T04:56:36;19.60;79.70
9816;DHT22;4947;44.526;11.360;2022-07-10T04:59:03;19.80;80.10
9816;DHT22;4947;44.526;11.360;2022-07-10T05:01:32;19.90;79.00
9816;DHT22;4947;44.526;11.360;2022-07-10T05:04:00;20.00;77.90
9816;DHT22;4947;44.526;11.360;2022-07-10T05:06:28;20.20;77.60
9816;DHT22;4947;44.526;11.360;2022-07-10T05:08:55;20.40;76.10
9816;DHT22;4947;44.526;11.360;2022-07-10T05:11:23;20.70;74.50
9816;DHT22;4947;44.526;11.360;2022-07-10T05:13:51;21.20;74.20
9816;DHT22;4947;44.526;11.360;2022-07-10T05:16:19;22.00;72.70
9816;DHT22;4947;44.526;11.360;2022-07-10T05:18:48;22.90;69.30
9816;DHT22;4947;44.526;11.360;2022-07-10T05:21:16;23.80;69.00
9816;DHT22;4947;44.526;11.360;2022-07-10T05:23:44;24.80;65.80
9816;DHT22;4947;44.526;11.360;2022-07-10T05:26:12;25.60;59.40
9816;DHT22;4947;44.526;11.360;2022-07-10T05:28:39;26.30;59.30
9816;DHT22;4947;44.526;11.360;2022-07-10T05:31:07;26.70;59.30
9816;DHT22;4947;44.526;11.360;2022-07-10T05:33:34;27.10;56.60
9816;DHT22;4947;44.526;11.360;2022-07-10T05:36:06;27.00;56.80
9816;DHT22;4947;44.526;11.360;2022-07-10T05:38:34;27.90;55.30
9816;DHT22;4947;44.526;11.360;2022-07-10T05:41:01;28.70;53.90
9816;DHT22;4947;44.526;11.360;2022-07-10T05:43:29;29.10;50.90
9816;DHT22;4947;44.526;11.360;2022-07-10T05:45:56;29.80;50.10
9816;DHT22;4947;44.526;11.360;2022-07-10T05:48:24;29.60;49.40
9816;DHT22;4947;44.526;11.360;2022-07-10T05:50:52;29.80;48.30
9816;DHT22;4947;44.526;11.360;2022-07-10T05:53:21;30.10;48.80
9816;DHT22;4947;44.526;11.360;2022-07-10T05:55:48;30.80;47.90
9816;DHT22;4947;44.526;11.360;2022-07-10T05:58:16;31.00;48.10
9816;DHT22;4947;44.526;11.360;2022-07-10T06:00:44;30.10;46.50
9816;DHT22;4947;44.526;11.360;2022-07-10T06:03:12;30.20;46.80
9816;DHT22;4947;44.526;11.360;2022-07-10T06:05:40;31.20;45.10
9816;DHT22;4947;44.526;11.360;2022-07-10T06:08:07;31.60;43.20
9816;DHT22;4947;44.526;11.360;2022-07-10T06:10:36;32.00;42.80
9816;DHT22;4947;44.526;11.360;2022-07-10T06:13:05;31.70;43.00
9816;DHT22;4947;44.526;11.360;2022-07-10T06:15:37;30.50;43.40
9816;DHT22;4947;44.526;11.360;2022-07-10T06:18:06;29.10;45.30
9816;DHT22;4947;44.526;11.360;2022-07-10T06:20:33;29.20;45.10
9816;DHT22;4947;44.526;11.360;2022-07-10T06:23:01;30.40;45.40
9816;DHT22;4947;44.526;11.360;2022-07-10T06:25:29;31.20;43.50
9816;DHT22;4947;44.526;11.360;2022-07-10T06:28:03;32.30;43.20
9816;DHT22;4947;44.526;11.360;2022-07-10T06:30:30;31.80;41.40
9816;DHT22;4947;44.526;11.360;2022-07-10T06:32:57;30.00;43.20
9816;DHT22;4947;44.526;11.360;2022-07-10T06:35:24;30.10;44.00
9816;DHT22;4947;44.526;11.360;2022-07-10T06:37:52;31.50;43.60
9816;DHT22;4947;44.526;11.360;2022-07-10T06:40:20;32.80;41.60
9816;DHT22;4947;44.526;11.360;2022-07-10T06:42:48;33.50;39.50
9816;DHT22;4947;44.526;11.360;2022-07-10T06:45:17;34.20;39.40
9816;DHT22;4947;44.526;11.360;2022-07-10T06:47:45;35.00;38.20
9816;DHT22;4947;44.526;11.360;2022-07-10T06:50:25;35.30;37.40
9816;DHT22;4947;44.526;11.360;2022-07-10T06:52:53;35.70;37.30
9816;DHT22;4947;44.526;11.360;2022-07-10T06:55:21;32.50;39.00
9816;DHT22;4947;44.526;11.360;2022-07-10T06:57:49;33.70;39.30
9816;DHT22;4947;44.526;11.360;2022-07-10T07:00:18;34.40;38.80
9816;DHT22;4947;44.526;11.360;2022-07-10T07:02:45;33.20;39.80
9816;DHT22;4947;44.526;11.360;2022-07-10T07:05:13;34.40;38.00
9816;DHT22;4947;44.526;11.360;2022-07-10T07:07:40;35.30;37.00
9816;DHT22;4947;44.526;11.360;2022-07-10T07:10:10;35.70;34.90
9816;DHT22;4947;44.526;11.360;2022-07-10T07:12:38;35.90;35.70
9816;DHT22;4947;44.526;11.360;2022-07-10T07:15:07;34.60;34.90
9816;DHT22;4947;44.526;11.360;2022-07-10T07:17:40;34.50;36.30
9816;DHT22;4947;44.526;11.360;2022-07-10T07:20:22;35.00;36.40
9816;DHT22;4947;44.526;11.360;2022-07-10T07:23:15;36.00;35.50
9816;DHT22;4947;44.526;11.360;2022-07-10T07:25:42;36.10;35.40
9816;DHT22;4947;44.526;11.360;2022-07-10T07:28:12;37.20;33.00
9816;DHT22;4947;44.526;11.360;2022-07-10T07:30:41;36.40;33.30
9816;DHT22;4947;44.526;11.360;2022-07-10T07:33:10;35.50;33.10
9816;DHT22;4947;44.526;11.360;2022-07-10T07:35:38;34.60;34.60
9816;DHT22;4947;44.526;11.360;2022-07-10T07:38:05;36.00;34.30
9816;DHT22;4947;44.526;11.360;2022-07-10T07:40:33;37.00;32.40
9816;DHT22;4947;44.526;11.360;2022-07-10T07:43:02;35.90;33.00
9816;DHT22;4947;44.526;11.360;2022-07-10T07:45:30;34.60;32.60
9816;DHT22;4947;44.526;11.360;2022-07-10T07:47:58;34.50;35.00
9816;DHT22;4947;44.526;11.360;2022-07-10T07:50:30;35.20;33.70
9816;DHT22;4947;44.526;11.360;2022-07-10T07:52:59;36.50;33.30
9816;DHT22;4947;44.526;11.360;2022-07-10T07:55:28;37.50;31.80
9816;DHT22;4947;44.526;11.360;2022-07-10T07:57:57;36.70;31.70
9816;DHT22;4947;44.526;11.360;2022-07-10T08:00:26;35.10;32.30
9816;DHT22;4947;44.526;11.360;2022-07-10T08:02:55;35.00;32.80
9816;DHT22;4947;44.526;11.360;2022-07-10T08:05:23;35.60;31.90
9816;DHT22;4947;44.526;11.360;2022-07-10T08:07:53;35.60;30.10
9816;DHT22;4947;44.526;11.360;2022-07-10T08:10:23;35.00;30.10
9816;DHT22;4947;44.526;11.360;2022-07-10T08:12:51;34.40;30.10
9816;DHT22;4947;44.526;11.360;2022-07-10T08:15:20;34.20;30.80
9816;DHT22;4947;44.526;11.360;2022-07-10T08:17:50;34.20;29.60
9816;DHT22;4947;44.526;11.360;2022-07-10T08:20:18;33.80;30.70
9816;DHT22;4947;44.526;11.360;2022-07-10T08:22:46;34.50;30.70
9816;DHT22;4947;44.526;11.360;2022-07-10T08:25:15;35.50;29.20
9816;DHT22;4947;44.526;11.360;2022-07-10T08:27:43;36.20;28.90
9816;DHT22;4947;44.526;11.360;2022-07-10T08:30:11;35.00;28.50
9816;DHT22;4947;44.526;11.360;2022-07-10T08:32:39;36.30;27.90
9816;DHT22;4947;44.526;11.360;2022-07-10T08:35:08;36.40;28.10
9816;DHT22;4947;44.526;11.360;2022-07-10T08:37:40;35.80;28.20
9816;DHT22;4947;44.526;11.360;2022-07-10T08:40:09;34.90;28.00
9816;DHT22;4947;44.526;11.360;2022-07-10T08:42:39;35.10;27.80
9816;DHT22;4947;44.526;11.360;2022-07-10T08:45:08;34.50;28.40
9816;DHT22;4947;44.526;11.360;2022-07-10T08:47:36;35.50;29.00
9816;DHT22;4947;44.526;11.360;2022-07-10T08:50:05;34.60;27.10
9816;DHT22;4947;44.526;11.360;2022-07-10T08:52:42;34.20;28.00
9816;DHT22;4947;44.526;11.360;2022-07-10T08:55:13;34.70;28.00
9816;DHT22;4947;44.526;11.360;2022-07-10T08:57:43;35.60;28.40
9816;DHT22;4947;44.526;11.360;2022-07-10T09:00:11;36.40;28.80
9816;DHT22;4947;44.526;11.360;2022-07-10T09:02:38;35.10;26.50
9816;DHT22;4947;44.526;11.360;2022-07-10T09:05:06;34.40;27.70
9816;DHT22;4947;44.526;11.360;2022-07-10T09:07:35;33.90;28.60
9816;DHT22;4947;44.526;11.360;2022-07-10T09:10:06;34.50;28.50
9816;DHT22;4947;44.526;11.360;2022-07-10T09:12:51;35.10;27.20
9816;DHT22;4947;44.526;11.360;2022-07-10T09:15:20;35.00;27.40
9816;DHT22;4947;44.526;11.360;2022-07-10T09:17:54;34.90;27.60
9816;DHT22;4947;44.526;11.360;2022-07-10T09:20:30;35.70;27.70
9816;DHT22;4947;44.526;11.360;2022-07-10T09:22:59;35.20;27.80
9816;DHT22;4947;44.526;11.360;2022-07-10T09:25:33;36.40;27.60
9816;DHT22;4947;44.526;11.360;2022-07-10T09:28:02;36.20;27.10
9816;DHT22;4947;44.526;11.360;2022-07-10T09:30:33;36.30;27.10
9816;DHT22;4947;44.526;11.360;2022-07-10T09:33:20;35.50;26.70
9816;DHT22;4947;44.526;11.360;2022-07-10T09:36:00;35.60;26.90
9816;DHT22;4947;44.526;11.360;2022-07-10T09:38:53;36.10;26.90
9816;DHT22;4947;44.526;11.360;2022-07-10T09:41:24;36.60;26.00
9816;DHT22;4947;44.526;11.360;2022-07-10T09:43:54;36.70;26.20
9816;DHT22;4947;44.526;11.360;2022-07-10T09:46:24;36.40;26.60
9816;DHT22;4947;44.526;11.360;2022-07-10T09:49:03;35.60;26.70
9816;DHT22;4947;44.526;11.360;2022-07-10T09:51:33;35.90;26.60
9816;DHT22;4947;44.526;11.360;2022-07-10T09:54:03;36.00;26.60
9816;DHT22;4947;44.526;11.360;2022-07-10T09:56:39;35.90;26.80
9816;DHT22;4947;44.526;11.360;2022-07-10T09:59:11;36.00;26.80
9816;DHT22;4947;44.526;11.360;2022-07-10T10:01:43;36.10;26.60
9816;DHT22;4947;44.526;11.360;2022-07-10T10:04:11;35.70;27.00
9816;DHT22;4947;44.526;11.360;2022-07-10T10:06:40;36.00;26.70
9816;DHT22;4947;44.526;11.360;2022-07-10T10:09:12;36.20;26.70
9816;DHT22;4947;44.526;11.360;2022-07-10T10:11:44;36.00;26.00
9816;DHT22;4947;44.526;11.360;2022-07-10T10:14:14;35.90;27.10
9816;DHT22;4947;44.526;11.360;2022-07-10T10:16:44;35.20;27.20
9816;DHT22;4947;44.526;11.360;2022-07-10T10:19:13;34.60;27.20
9816;DHT22;4947;44.526;11.360;2022-07-10T10:21:58;34.30;27.40
9816;DHT22;4947;44.526;11.360;2022-07-10T10:24:26;34.20;27.60
9816;DHT22;4947;44.526;11.360;2022-07-10T10:26:54;34.00;28.00
9816;DHT22;4947;44.526;11.360;2022-07-10T10:29:23;33.90;28.20
9816;DHT22;4947;44.526;11.360;2022-07-10T10:31:51;34.00;29.40
9816;DHT22;4947;44.526;11.360;2022-07-10T10:34:40;34.10;28.40
9816;DHT22;4947;44.526;11.360;2022-07-10T10:37:29;34.10;27.80
9816;DHT22;4947;44.526;11.360;2022-07-10T10:39:59;34.20;28.00
9816;DHT22;4947;44.526;11.360;2022-07-10T10:42:34;34.20;28.60
9816;DHT22;4947;44.526;11.360;2022-07-10T10:45:32;34.10;28.30
9816;DHT22;4947;44.526;11.360;2022-07-10T10:48:02;34.00;28.00
9816;DHT22;4947;44.526;11.360;2022-07-10T10:50:39;33.10;27.70
9816;DHT22;4947;44.526;11.360;2022-07-10T10:53:13;33.10;28.40
9816;DHT22;4947;44.526;11.360;2022-07-10T10:55:42;33.10;29.20
9816;DHT22;4947;44.526;11.360;2022-07-10T10:58:36;33.30;28.80
9816;DHT22;4947;44.526;11.360;2022-07-10T11:01:19;33.50;29.20
9816;DHT22;4947;44.526;11.360;2022-07-10T11:04:14;33.80;28.60
9816;DHT22;4947;44.526;11.360;2022-07-10T11:06:42;33.80;27.80
9816;DHT22;4947;44.526;11.360;2022-07-10T11:09:24;33.80;28.40
9816;DHT22;4947;44.526;11.360;2022-07-10T11:12:01;33.80;28.50
9816;DHT22;4947;44.526;11.360;2022-07-10T11:14:30;33.50;28.00
9816;DHT22;4947;44.526;11.360;2022-07-10T11:17:00;33.10;29.50
9816;DHT22;4947;44.526;11.360;2022-07-10T11:19:29;32.80;29.30
9816;DHT22;4947;44.526;11.360;2022-07-10T11:22:26;32.60;29.90
9816;DHT22;4947;44.526;11.360;2022-07-10T11:25:03;32.40;29.30
9816;DHT22;4947;44.526;11.360;2022-07-10T11:27:56;32.50;30.00
9816;DHT22;4947;44.526;11.360;2022-07-10T11:30:27;32.60;29.90
9816;DHT22;4947;44.526;11.360;2022-07-10T11:33:04;32.60;30.00
9816;DHT22;4947;44.526;11.360;2022-07-10T11:35:31;32.70;29.20
9816;DHT22;4947;44.526;11.360;2022-07-10T11:37:59;32.90;28.60
9816;DHT22;4947;44.526;11.360;2022-07-10T11:40:27;32.90;30.00
9816;DHT22;4947;44.526;11.360;2022-07-10T11:42:55;32.90;30.40
9816;DHT22;4947;44.526;11.360;2022-07-10T11:45:25;32.90;29.50
9816;DHT22;4947;44.526;11.360;2022-07-10T11:47:53;32.90;29.60
9816;DHT22;4947;44.526;11.360;2022-07-10T11:50:23;32.90;29.80
9816;DHT22;4947;44.526;11.360;2022-07-10T11:52:51;32.80;29.50
9816;DHT22;4947;44.526;11.360;2022-07-10T11:55:20;32.50;29.50
9816;DHT22;4947;44.526;11.360;2022-07-10T11:57:48;32.70;29.40
9816;DHT22;4947;44.526;11.360;2022-07-10T12:00:23;32.90;29.50
9816;DHT22;4947;44.526;11.360;2022-07-10T12:02:50;32.90;29.70
9816;DHT22;4947;44.526;11.360;2022-07-10T12:05:41;33.00;30.40
9816;DHT22;4947;44.526;11.360;2022-07-10T12:08:08;33.00;29.40
9816;DHT22;4947;44.526;11.360;2022-07-10T12:10:36;33.00;29.50
9816;DHT22;4947;44.526;11.360;2022-07-10T12:13:07;32.70;29.20
9816;DHT22;4947;44.526;11.360;2022-07-10T12:15:35;32.70;29.10
9816;DHT22;4947;44.526;11.360;2022-07-10T12:18:04;32.70;29.30
9816;DHT22;4947;44.526;11.360;2022-07-10T12:20:32;32.60;29.40
9816;DHT22;4947;44.526;11.360;2022-07-10T12:23:02;32.50;30.00
9816;DHT22;4947;44.526;11.360;2022-07-10T12:25:30;32.40;30.00
9816;DHT22;4947;44.526;11.360;2022-07-10T12:27:59;32.40;29.70
9816;DHT22;4947;44.526;11.360;2022-07-10T12:30:45;32.50;29.90
9816;DHT22;4947;44.526;11.360;2022-07-10T12:33:14;32.50;29.90
9816;DHT22;4947;44.526;11.360;2022-07-10T12:35:50;32.40;31.00
9816;DHT22;4947;44.526;11.360;2022-07-10T12:38:20;32.50;30.00
9816;DHT22;4947;44.526;11.360;2022-07-10T12:40:48;32.70;31.20
9816;DHT22;4947;44.526;11.360;2022-07-10T12:43:27;32.90;30.30
9816;DHT22;4947;44.526;11.360;2022-07-10T12:46:11;32.90;29.70
9816;DHT22;4947;44.526;11.360;2022-07-10T12:48:41;32.70;31.10
9816;DHT22;4947;44.526;11.360;2022-07-10T12:51:20;32.80;30.40
9816;DHT22;4947;44.526;11.360;2022-07-10T12:53:49;32.80;30.30
9816;DHT22;4947;44.526;11.360;2022-07-10T12:56:31;32.90;30.10
9816;DHT22;4947;44.526;11.360;2022-07-10T12:58:59;33.00;31.20
9816;DHT22;4947;44.526;11.360;2022-07-10T13:01:27;33.00;30.40
9816;DHT22;4947;44.526;11.360;2022-07-10T13:04:00;32.90;30.20
9816;DHT22;4947;44.526;11.360;2022-07-10T13:06:28;32.70;30.40
9816;DHT22;4947;44.526;11.360;2022-07-10T13:08:57;32.80;32.20
9816;DHT22;4947;44.526;11.360;2022-07-10T13:11:25;32.80;30.40
9816;DHT22;4947;44.526;11.360;2022-07-10T13:13:52;32.80;30.10
9816;DHT22;4947;44.526;11.360;2022-07-10T13:16:21;32.80;30.30
9816;DHT22;4947;44.526;11.360;2022-07-10T13:18:49;32.80;31.10
9816;DHT22;4947;44.526;11.360;2022-07-10T13:21:17;32.70;30.40
9816;DHT22;4947;44.526;11.360;2022-07-10T13:23:44;32.70;30.30
9816;DHT22;4947;44.526;11.360;2022-07-10T13:26:14;32.70;30.70
9816;DHT22;4947;44.526;11.360;2022-07-10T13:28:42;32.70;30.30
9816;DHT22;4947;44.526;11.360;2022-07-10T13:31:09;32.90;31.60
9816;DHT22;4947;44.526;11.360;2022-07-10T13:33:38;33.00;30.50
9816;DHT22;4947;44.526;11.360;2022-07-10T13:36:06;32.90;30.30
9816;DHT22;4947;44.526;11.360;2022-07-10T13:38:34;32.90;30.50
9816;DHT22;4947;44.526;11.360;2022-07-10T13:41:02;32.80;30.50
9816;DHT22;4947;44.526;11.360;2022-07-10T13:43:31;32.70;30.80
9816;DHT22;4947;44.526;11.360;2022-07-10T13:46:01;32.70;31.10
9816;DHT22;4947;44.526;11.360;2022-07-10T13:48:29;32.60;30.70
9816;DHT22;4947;44.526;11.360;2022-07-10T13:50:57;32.50;30.70
9816;DHT22;4947;44.526;11.360;2022-07-10T13:53:25;32.60;31.80
9816;DHT22;4947;44.526;11.360;2022-07-10T13:55:52;32.40;31.50
9816;DHT22;4947;44.526;11.360;2022-07-10T13:58:20;32.30;31.50
9816;DHT22;4947;44.526;11.360;2022-07-10T14:00:49;32.30;30.90
9816;DHT22;4947;44.526;11.360;2022-07-10T14:03:16;32.20;32.00
9816;DHT22;4947;44.526;11.360;2022-07-10T14:05:43;32.20;31.80
9816;DHT22;4947;44.526;11.360;2022-07-10T14:08:11;32.20;31.70
9816;DHT22;4947;44.526;11.360;2022-07-10T14:10:38;32.30;31.80
9816;DHT22;4947;44.526;11.360;2022-07-10T14:13:06;32.30;31.60
9816;DHT22;4947;44.526;11.360;2022-07-10T14:15:34;32.40;32.00
9816;DHT22;4947;44.526;11.360;2022-07-10T14:18:03;32.20;30.90
9816;DHT22;4947;44.526;11.360;2022-07-10T14:20:31;32.10;31.30
9816;DHT22;4947;44.526;11.360;2022-07-10T14:23:19;32.30;33.00
9816;DHT22;4947;44.526;11.360;2022-07-10T14:25:46;32.50;32.20
9816;DHT22;4947;44.526;11.360;2022-07-10T14:28:14;32.50;32.40
9816;DHT22;4947;44.526;11.360;2022-07-10T14:30:42;32.40;32.20
9816;DHT22;4947;44.526;11.360;2022-07-10T14:33:12;32.30;31.40
9816;DHT22;4947;44.526;11.360;2022-07-10T14:35:40;32.30;31.10
9816;DHT22;4947;44.526;11.360;2022-07-10T14:38:07;32.30;31.50
9816;DHT22;4947;44.526;11.360;2022-07-10T14:40:35;32.50;31.50
9816;DHT22;4947;44.526;11.360;2022-07-10T14:43:02;32.50;32.00
9816;DHT22;4947;44.526;11.360;2022-07-10T14:45:30;32.50;32.00
9816;DHT22;4947;44.526;11.360;2022-07-10T14:47:57;32.70;31.20
9816;DHT22;4947;44.526;11.360;2022-07-10T14:50:26;32.70;30.30
9816;DHT22;4947;44.526;11.360;2022-07-10T14:52:54;32.70;30.20
9816;DHT22;4947;44.526;11.360;2022-07-10T14:55:22;33.00;32.20
9816;DHT22;4947;44.526;11.360;2022-07-10T14:57:53;33.00;31.60
9816;DHT22;4947;44.526;11.360;2022-07-10T15:00:20;33.10;31.10
9816;DHT22;4947;44.526;11.360;2022-07-10T15:02:48;33.20;31.40
9816;DHT22;4947;44.526;11.360;2022-07-10T15:05:15;33.30;31.20
9816;DHT22;4947;44.526;11.360;2022-07-10T15:07:44;33.30;29.60
9816;DHT22;4947;44.526;11.360;2022-07-10T15:10:12;33.30;29.70
9816;DHT22;4947;44.526;11.360;2022-07-10T15:12:41;33.30;29.80
9816;DHT22;4947;44.526;11.360;2022-07-10T15:15:10;33.30;29.70
9816;DHT22;4947;44.526;11.360;2022-07-10T15:17:37;33.20;29.70
9816;DHT22;4947;44.526;11.360;2022-07-10T15:20:06;33.10;30.00
9816;DHT22;4947;44.526;11.360;2022-07-10T15:22:37;33.20;29.90
9816;DHT22;4947;44.526;11.360;2022-07-10T15:25:07;33.20;30.00
9816;DHT22;4947;44.526;11.360;2022-07-10T15:27:35;33.30;29.80
9816;DHT22;4947;44.526;11.360;2022-07-10T15:30:02;33.30;30.10
9816;DHT22;4947;44.526;11.360;2022-07-10T15:32:30;33.30;30.20
9816;DHT22;4947;44.526;11.360;2022-07-10T15:34:57;33.30;30.00
9816;DHT22;4947;44.526;11.360;2022-07-10T15:37:25;33.30;30.50
9816;DHT22;4947;44.526;11.360;2022-07-10T15:39:53;33.20;30.10
9816;DHT22;4947;44.526;11.360;2022-07-10T15:42:22;33.30;30.30
9816;DHT22;4947;44.526;11.360;2022-07-10T15:44:50;33.20;29.40
9816;DHT22;4947;44.526;11.360;2022-07-10T15:47:17;33.20;30.20
9816;DHT22;4947;44.526;11.360;2022-07-10T15:49:47;33.20;30.50
9816;DHT22;4947;44.526;11.360;2022-07-10T15:52:14;33.20;29.60
9816;DHT22;4947;44.526;11.360;2022-07-10T15:54:41;33.10;29.50
9816;DHT22;4947;44.526;11.360;2022-07-10T15:57:10;33.20;29.50
9816;DHT22;4947;44.526;11.360;2022-07-10T15:59:43;33.20;29.50